sensor_id;sensor_type;location;lat;lon;timestamp;temperature;humidity
48043;DHT22;33988;47.992;8.820;2023-07-31T00:01:05;21.80;48.70
48043;DHT22;33988;47.992;8.820;2023-07-31T00:03:36;21.70;48.70
48043;DHT22;33988;47.992;8.820;2023-07-31T00:06:03;21.70;48.80
48043;DHT22;33988;47.992;8.820;2023-07-31T00:08:30;21.80;48.80
48043;DHT22;33988;47.992;8.820;2023-07-31T00:10:57;21.70;48.80
48043;DHT22;33988;47.992;8.820;2023-07-31T00:13:24;21.70;48.80
48043;DHT22;33988;47.992;8.820;2023-07-31T00:15:51;21.70;48.90
48043;DHT22;33988;47.992;8.820;2023-07-31T00:18:20;21.60;48.80
48043;DHT22;33988;47.992;8.820;2023-07-31T00:20:50;21.60;48.80
48043;DHT22;33988;47.992;8.820;2023-07-31T00:23:19;21.60;48.90
48043;DHT22;33988;47.992;8.820;2023-07-31T00:25:46;21.60;48.90
48043;DHT22;33988;47.992;8.820;2023-07-31T00:28:13;21.50;48.90
48043;DHT22;33988;47.992;8.820;2023-07-31T00:30:40;21.50;48.90
48043;DHT22;33988;47.992;8.820;2023-07-31T00:33:07;21.50;49.00
48043;DHT22;33988;47.992;8.820;2023-07-31T00:35:34;21.50;49.00
48043;DHT22;33988;47.992;8.820;2023-07-31T00:38:01;21.50;49.20
48043;DHT22;33988;47.992;8.820;2023-07-31T00:40:27;21.40;49.10
48043;DHT22;33988;47.992;8.820;2023-07-31T00:42:57;21.50;49.10
48043;DHT22;33988;47.992;8.820;2023-07-31T00:45:31;21.40;49.10
48043;DHT22;33988;47.992;8.820;2023-07-31T00:48:01;21.40;49.10
48043;DHT22;33988;47.992;8.820;2023-07-31T00:50:28;21.40;49.10
48043;DHT22;33988;47.992;8.820;2023-07-31T00:52:58;21.30;49.10
48043;DHT22;33988;47.992;8.820;2023-07-31T00:55:25;21.30;49.10
48043;DHT22;33988;47.992;8.820;2023-07-31T00:57:52;21.30;49.30
48043;DHT22;33988;47.992;8.820;2023-07-31T01:00:22;21.20;49.30
48043;DHT22;33988;47.992;8.820;2023-07-31T01:02:50;21.20;49.40
48043;DHT22;33988;47.992;8.820;2023-07-31T01:05:33;21.20;49.50
48043;DHT22;33988;47.992;8.820;2023-07-31T01:08:18;21.10;49.50
48043;DHT22;33988;47.992;8.820;2023-07-31T01:10:53;21.10;49.60
48043;DHT22;33988;47.992;8.820;2023-07-31T01:13:23;21.10;49.60
48043;DHT22;33988;47.992;8.820;2023-07-31T01:15:52;21.00;49.50
48043;DHT22;33988;47.992;8.820;2023-07-31T01:18:19;21.00;49.60
48043;DHT22;33988;47.992;8.820;2023-07-31T01:20:54;21.00;49.60
48043;DHT22;33988;47.992;8.820;2023-07-31T01:26:12;20.90;49.60
48043;DHT22;33988;47.992;8.820;2023-07-31T01:28:56;20.90;49.60
48043;DHT22;33988;47.992;8.820;2023-07-31T01:31:30;20.90;49.60
48043;DHT22;33988;47.992;8.820;2023-07-31T01:34:02;20.90;49.70
48043;DHT22;33988;47.992;8.820;2023-07-31T01:36:32;20.90;49.70
48043;DHT22;33988;47.992;8.820;2023-07-31T01:39:02;20.80;49.70
48043;DHT22;33988;47.992;8.820;2023-07-31T01:41:32;20.80;49.70
48043;DHT22;33988;47.992;8.820;2023-07-31T01:43:59;20.80;49.70
48043;DHT22;33988;47.992;8.820;2023-07-31T01:46:28;20.80;49.70
48043;DHT22;33988;47.992;8.820;2023-07-31T01:48:58;20.80;49.70
48043;DHT22;33988;47.992;8.820;2023-07-31T01:51:25;20.80;49.70
48043;DHT22;33988;47.992;8.820;2023-07-31T01:53:54;20.70;49.70
48043;DHT22;33988;47.992;8.820;2023-07-31T01:56:21;20.70;49.80
48043;DHT22;33988;47.992;8.820;2023-07-31T01:58:50;20.70;49.90
48043;DHT22;33988;47.992;8.820;2023-07-31T02:01:17;20.70;50.00
48043;DHT22;33988;47.992;8.820;2023-07-31T02:03:49;20.70;50.00
48043;DHT22;33988;47.992;8.820;2023-07-31T02:06:16;20.40;50.10
48043;DHT22;33988;47.992;8.820;2023-07-31T02:08:45;20.60;50.00
48043;DHT22;33988;47.992;8.820;2023-07-31T02:11:14;20.60;50.00
48043;DHT22;33988;47.992;8.820;2023-07-31T02:13:41;20.60;50.00
48043;DHT22;33988;47.992;8.820;2023-07-31T02:16:08;20.60;50.00
48043;DHT22;33988;47.992;8.820;2023-07-31T02:18:35;20.60;50.10
48043;DHT22;33988;47.992;8.820;2023-07-31T02:21:02;20.50;50.10
48043;DHT22;33988;47.992;8.820;2023-07-31T02:23:29;20.50;50.80
48043;DHT22;33988;47.992;8.820;2023-07-31T02:25:56;20.50;50.20
48043;DHT22;33988;47.992;8.820;2023-07-31T02:28:23;20.40;50.20
48043;DHT22;33988;47.992;8.820;2023-07-31T02:30:52;20.40;50.20
48043;DHT22;33988;47.992;8.820;2023-07-31T02:33:19;20.40;50.20
48043;DHT22;33988;47.992;8.820;2023-07-31T02:35:46;20.40;50.90
48043;DHT22;33988;47.992;8.820;2023-07-31T02:38:13;20.40;50.30
48043;DHT22;33988;47.992;8.820;2023-07-31T02:40:40;20.40;50.30
48043;DHT22;33988;47.992;8.820;2023-07-31T02:43:10;20.40;50.30
48043;DHT22;33988;47.992;8.820;2023-07-31T02:45:36;20.30;50.30
48043;DHT22;33988;47.992;8.820;2023-07-31T02:48:04;20.30;50.30
48043;DHT22;33988;47.992;8.820;2023-07-31T02:50:31;20.30;50.20
48043;DHT22;33988;47.992;8.820;2023-07-31T02:52:58;20.30;50.20
48043;DHT22;33988;47.992;8.820;2023-07-31T02:55:25;20.30;50.20
48043;DHT22;33988;47.992;8.820;2023-07-31T02:57:52;20.30;50.20
48043;DHT22;33988;47.992;8.820;2023-07-31T03:00:19;20.30;50.20
48043;DHT22;33988;47.992;8.820;2023-07-31T03:02:46;20.30;50.30
48043;DHT22;33988;47.992;8.820;2023-07-31T03:05:16;20.20;50.30
48043;DHT22;33988;47.992;8.820;2023-07-31T03:07:43;20.20;50.30
48043;DHT22;33988;47.992;8.820;2023-07-31T03:10:10;20.20;50.30
48043;DHT22;33988;47.992;8.820;2023-07-31T03:12:39;20.10;50.30
48043;DHT22;33988;47.992;8.820;2023-07-31T03:15:09;20.10;50.30
48043;DHT22;33988;47.992;8.820;2023-07-31T03:17:41;20.10;50.40
48043;DHT22;33988;47.992;8.820;2023-07-31T03:20:11;20.10;50.40
48043;DHT22;33988;47.992;8.820;2023-07-31T03:22:38;20.00;50.40
48043;DHT22;33988;47.992;8.820;2023-07-31T03:25:05;20.00;50.50
48043;DHT22;33988;47.992;8.820;2023-07-31T03:27:40;20.00;50.50
48043;DHT22;33988;47.992;8.820;2023-07-31T03:30:07;20.00;50.50
48043;DHT22;33988;47.992;8.820;2023-07-31T03:32:36;20.00;50.50
48043;DHT22;33988;47.992;8.820;2023-07-31T03:35:04;20.00;50.50
48043;DHT22;33988;47.992;8.820;2023-07-31T03:37:34;20.00;50.50
48043;DHT22;33988;47.992;8.820;2023-07-31T03:40:01;20.00;50.50
48043;DHT22;33988;47.992;8.820;2023-07-31T03:42:28;19.90;50.50
48043;DHT22;33988;47.992;8.820;2023-07-31T03:44:55;20.00;50.60
48043;DHT22;33988;47.992;8.820;2023-07-31T03:47:22;19.90;50.50
48043;DHT22;33988;47.992;8.820;2023-07-31T03:49:49;19.90;50.60
48043;DHT22;33988;47.992;8.820;2023-07-31T03:52:19;19.90;50.60
48043;DHT22;33988;47.992;8.820;2023-07-31T03:54:45;19.90;50.70
48043;DHT22;33988;47.992;8.820;2023-07-31T03:57:12;19.80;50.70
48043;DHT22;33988;47.992;8.820;2023-07-31T03:59:39;19.80;51.30
48043;DHT22;33988;47.992;8.820;2023-07-31T04:02:09;19.80;50.70
48043;DHT22;33988;47.992;8.820;2023-07-31T04:04:36;19.80;50.70
48043;DHT22;33988;47.992;8.820;2023-07-31T04:07:05;19.80;50.80
48043;DHT22;33988;47.992;8.820;2023-07-31T04:09:32;19.80;50.80
48043;DHT22;33988;47.992;8.820;2023-07-31T04:12:01;19.70;50.80
48043;DHT22;33988;47.992;8.820;2023-07-31T04:14:30;19.70;50.90
48043;DHT22;33988;47.992;8.820;2023-07-31T04:16:57;19.70;50.90
48043;DHT22;33988;47.992;8.820;2023-07-31T04:19:26;19.70;51.00
48043;DHT22;33988;47.992;8.820;2023-07-31T04:21:55;19.70;51.80
48043;DHT22;33988;47.992;8.820;2023-07-31T04:24:27;19.70;51.20
48043;DHT22;33988;47.992;8.820;2023-07-31T04:26:54;19.70;51.30
48043;DHT22;33988;47.992;8.820;2023-07-31T04:29:23;19.70;51.30
48043;DHT22;33988;47.992;8.820;2023-07-31T04:31:50;19.70;51.40
48043;DHT22;33988;47.992;8.820;2023-07-31T04:34:20;19.70;51.50
48043;DHT22;33988;47.992;8.820;2023-07-31T04:36:49;19.70;51.50
48043;DHT22;33988;47.992;8.820;2023-07-31T04:39:16;19.70;51.50
48043;DHT22;33988;47.992;8.820;2023-07-31T04:41:43;19.70;51.70
48043;DHT22;33988;47.992;8.820;2023-07-31T04:44:10;19.60;51.60
48043;DHT22;33988;47.992;8.820;2023-07-31T04:46:37;19.70;51.80
48043;DHT22;33988;47.992;8.820;2023-07-31T04:49:05;19.60;51.80
48043;DHT22;33988;47.992;8.820;2023-07-31T04:51:34;19.60;51.90
48043;DHT22;33988;47.992;8.820;2023-07-31T04:54:03;19.60;52.10
48043;DHT22;33988;47.992;8.820;2023-07-31T04:56:32;19.60;52.20
48043;DHT22;33988;47.992;8.820;2023-07-31T04:58:59;19.60;52.20
48043;DHT22;33988;47.992;8.820;2023-07-31T05:01:29;19.60;52.30
48043;DHT22;33988;47.992;8.820;2023-07-31T05:03:56;19.70;52.40
48043;DHT22;33988;47.992;8.820;2023-07-31T05:06:23;19.70;52.40
48043;DHT22;33988;47.992;8.820;2023-07-31T05:08:50;19.70;52.40
48043;DHT22;33988;47.992;8.820;2023-07-31T05:11:16;19.70;52.30
48043;DHT22;33988;47.992;8.820;2023-07-31T05:13:46;19.70;52.30
48043;DHT22;33988;47.992;8.820;2023-07-31T05:16:13;19.80;52.40
48043;DHT22;33988;47.992;8.820;2023-07-31T05:18:40;19.80;52.30
48043;DHT22;33988;47.992;8.820;2023-07-31T05:21:07;19.90;52.40
48043;DHT22;33988;47.992;8.820;2023-07-31T05:23:36;19.90;52.40
48043;DHT22;33988;47.992;8.820;2023-07-31T05:26:06;19.90;52.50
48043;DHT22;33988;47.992;8.820;2023-07-31T05:28:36;20.00;52.50
48043;DHT22;33988;47.992;8.820;2023-07-31T05:31:04;20.00;52.50
48043;DHT22;33988;47.992;8.820;2023-07-31T05:33:32;20.10;52.50
48043;DHT22;33988;47.992;8.820;2023-07-31T05:35:59;20.10;52.50
48043;DHT22;33988;47.992;8.820;2023-07-31T05:38:28;20.20;52.50
48043;DHT22;33988;47.992;8.820;2023-07-31T05:40:58;20.20;52.40
48043;DHT22;33988;47.992;8.820;2023-07-31T05:43:27;20.20;52.40
48043;DHT22;33988;47.992;8.820;2023-07-31T05:45:54;20.20;52.30
48043;DHT22;33988;47.992;8.820;2023-07-31T05:48:24;20.20;52.30
48043;DHT22;33988;47.992;8.820;2023-07-31T05:50:51;20.30;52.30
48043;DHT22;33988;47.992;8.820;2023-07-31T05:53:18;20.30;52.30
48043;DHT22;33988;47.992;8.820;2023-07-31T05:55:45;20.30;52.40
48043;DHT22;33988;47.992;8.820;2023-07-31T05:58:11;20.30;52.40
48043;DHT22;33988;47.992;8.820;2023-07-31T06:00:43;20.40;52.50
48043;DHT22;33988;47.992;8.820;2023-07-31T06:03:12;20.10;53.30
48043;DHT22;33988;47.992;8.820;2023-07-31T06:05:41;20.40;52.50
48043;DHT22;33988;47.992;8.820;2023-07-31T06:08:08;20.40;52.50
48043;DHT22;33988;47.992;8.820;2023-07-31T06:10:38;20.50;52.60
48043;DHT22;33988;47.992;8.820;2023-07-31T06:13:07;20.50;52.70
48043;DHT22;33988;47.992;8.820;2023-07-31T06:15:34;20.50;52.70
48043;DHT22;33988;47.992;8.820;2023-07-31T06:18:01;20.50;52.70
48043;DHT22;33988;47.992;8.820;2023-07-31T06:20:29;20.60;52.80
48043;DHT22;33988;47.992;8.820;2023-07-31T06:22:59;20.60;52.90
48043;DHT22;33988;47.992;8.820;2023-07-31T06:25:26;20.60;52.90
48043;DHT22;33988;47.992;8.820;2023-07-31T06:27:55;20.70;52.90
48043;DHT22;33988;47.992;8.820;2023-07-31T06:30:22;20.70;52.80
48043;DHT22;33988;47.992;8.820;2023-07-31T06:32:49;20.80;52.90
48043;DHT22;33988;47.992;8.820;2023-07-31T06:35:19;20.80;52.80
48043;DHT22;33988;47.992;8.820;2023-07-31T06:37:49;20.90;52.90
48043;DHT22;33988;47.992;8.820;2023-07-31T06:40:22;20.90;52.90
48043;DHT22;33988;47.992;8.820;2023-07-31T06:42:49;20.90;52.90
48043;DHT22;33988;47.992;8.820;2023-07-31T06:45:21;20.90;52.80
48043;DHT22;33988;47.992;8.820;2023-07-31T06:47:50;21.00;52.90
48043;DHT22;33988;47.992;8.820;2023-07-31T06:50:18;21.00;52.90
48043;DHT22;33988;47.992;8.820;2023-07-31T06:52:44;21.00;52.80
48043;DHT22;33988;47.992;8.820;2023-07-31T06:55:20;21.10;52.80
48043;DHT22;33988;47.992;8.820;2023-07-31T06:57:54;21.10;52.80
48043;DHT22;33988;47.992;8.820;2023-07-31T07:00:24;21.10;52.70
48043;DHT22;33988;47.992;8.820;2023-07-31T07:02:54;21.20;52.70
48043;DHT22;33988;47.992;8.820;2023-07-31T07:05:23;21.20;52.70
48043;DHT22;33988;47.992;8.820;2023-07-31T07:07:50;21.20;52.80
48043;DHT22;33988;47.992;8.820;2023-07-31T07:10:22;21.30;52.80
48043;DHT22;33988;47.992;8.820;2023-07-31T07:12:54;21.30;52.80
48043;DHT22;33988;47.992;8.820;2023-07-31T07:15:24;21.40;53.00
48043;DHT22;33988;47.992;8.820;2023-07-31T07:17:55;21.40;53.00
48043;DHT22;33988;47.992;8.820;2023-07-31T07:20:25;21.50;53.10
48043;DHT22;33988;47.992;8.820;2023-07-31T07:22:54;21.60;53.10
48043;DHT22;33988;47.992;8.820;2023-07-31T07:25:21;21.70;53.00
48043;DHT22;33988;47.992;8.820;2023-07-31T07:27:50;21.80;52.90
48043;DHT22;33988;47.992;8.820;2023-07-31T07:30:17;21.80;52.80
48043;DHT22;33988;47.992;8.820;2023-07-31T07:32:49;21.90;52.80
48043;DHT22;33988;47.992;8.820;2023-07-31T07:35:16;22.00;52.80
48043;DHT22;33988;47.992;8.820;2023-07-31T07:37:45;22.00;52.80
48043;DHT22;33988;47.992;8.820;2023-07-31T07:40:21;22.10;52.80
48043;DHT22;33988;47.992;8.820;2023-07-31T07:42:50;22.20;52.80
48043;DHT22;33988;47.992;8.820;2023-07-31T07:45:17;22.20;52.70
48043;DHT22;33988;47.992;8.820;2023-07-31T07:47:49;22.30;52.60
48043;DHT22;33988;47.992;8.820;2023-07-31T07:50:19;22.30;52.40
48043;DHT22;33988;47.992;8.820;2023-07-31T07:52:49;22.40;52.30
48043;DHT22;33988;47.992;8.820;2023-07-31T07:55:19;22.50;52.40
48043;DHT22;33988;47.992;8.820;2023-07-31T07:57:48;22.50;52.40
48043;DHT22;33988;47.992;8.820;2023-07-31T08:00:19;22.60;52.30
48043;DHT22;33988;47.992;8.820;2023-07-31T08:02:46;22.70;52.20
48043;DHT22;33988;47.992;8.820;2023-07-31T08:05:14;22.70;52.20
48043;DHT22;33988;47.992;8.820;2023-07-31T08:07:43;22.80;52.00
48043;DHT22;33988;47.992;8.820;2023-07-31T08:10:10;22.80;51.80
48043;DHT22;33988;47.992;8.820;2023-07-31T08:12:37;23.00;51.90
48043;DHT22;33988;47.992;8.820;2023-07-31T08:15:08;23.10;51.70
48043;DHT22;33988;47.992;8.820;2023-07-31T08:17:37;23.20;51.70
48043;DHT22;33988;47.992;8.820;2023-07-31T08:20:07;23.30;51.50
48043;DHT22;33988;47.992;8.820;2023-07-31T08:22:34;23.40;51.60
48043;DHT22;33988;47.992;8.820;2023-07-31T08:25:01;23.60;51.50
48043;DHT22;33988;47.992;8.820;2023-07-31T08:27:31;23.70;51.30
48043;DHT22;33988;47.992;8.820;2023-07-31T08:29:58;23.80;51.20
48043;DHT22;33988;47.992;8.820;2023-07-31T08:32:29;24.00;51.00
48043;DHT22;33988;47.992;8.820;2023-07-31T08:34:58;24.10;50.80
48043;DHT22;33988;47.992;8.820;2023-07-31T08:37:25;24.20;50.50
48043;DHT22;33988;47.992;8.820;2023-07-31T08:39:52;24.40;50.40
48043;DHT22;33988;47.992;8.820;2023-07-31T08:42:22;24.50;50.20
48043;DHT22;33988;47.992;8.820;2023-07-31T08:44:52;24.60;50.10
48043;DHT22;33988;47.992;8.820;2023-07-31T08:47:20;24.80;49.70
48043;DHT22;33988;47.992;8.820;2023-07-31T08:49:52;24.90;49.50
48043;DHT22;33988;47.992;8.820;2023-07-31T08:52:19;25.00;49.10
48043;DHT22;33988;47.992;8.820;2023-07-31T08:54:46;25.10;49.10
48043;DHT22;33988;47.992;8.820;2023-07-31T08:57:16;25.20;48.80
48043;DHT22;33988;47.992;8.820;2023-07-31T08:59:46;25.30;48.60
48043;DHT22;33988;47.992;8.820;2023-07-31T09:02:14;25.40;48.50
48043;DHT22;33988;47.992;8.820;2023-07-31T09:04:42;25.50;48.40
48043;DHT22;33988;47.992;8.820;2023-07-31T09:07:12;25.60;48.00
48043;DHT22;33988;47.992;8.820;2023-07-31T09:09:40;25.70;47.70
48043;DHT22;33988;47.992;8.820;2023-07-31T09:12:07;25.80;47.60
48043;DHT22;33988;47.992;8.820;2023-07-31T09:14:37;25.80;47.30
48043;DHT22;33988;47.992;8.820;2023-07-31T09:17:05;25.90;47.50
48043;DHT22;33988;47.992;8.820;2023-07-31T09:19:38;26.00;47.50
48043;DHT22;33988;47.992;8.820;2023-07-31T09:22:06;26.10;47.40
48043;DHT22;33988;47.992;8.820;2023-07-31T09:24:34;26.20;47.10
48043;DHT22;33988;47.992;8.820;2023-07-31T09:27:01;26.30;46.80
48043;DHT22;33988;47.992;8.820;2023-07-31T09:29:29;26.40;47.00
48043;DHT22;33988;47.992;8.820;2023-07-31T09:31:56;26.50;46.60
48043;DHT22;33988;47.992;8.820;2023-07-31T09:34:30;26.60;46.60
48043;DHT22;33988;47.992;8.820;2023-07-31T09:37:04;26.60;46.60
48043;DHT22;33988;47.992;8.820;2023-07-31T09:39:32;26.70;46.60
48043;DHT22;33988;47.992;8.820;2023-07-31T09:42:01;26.80;46.60
48043;DHT22;33988;47.992;8.820;2023-07-31T09:44:40;26.90;46.70
48043;DHT22;33988;47.992;8.820;2023-07-31T09:47:26;26.90;46.80
48043;DHT22;33988;47.992;8.820;2023-07-31T09:49:53;27.00;45.80
48043;DHT22;33988;47.992;8.820;2023-07-31T09:52:20;27.10;45.70
48043;DHT22;33988;47.992;8.820;2023-07-31T09:54:47;27.20;45.50
48043;DHT22;33988;47.992;8.820;2023-07-31T09:57:17;27.30;45.30
48043;DHT22;33988;47.992;8.820;2023-07-31T09:59:47;27.40;45.20
48043;DHT22;33988;47.992;8.820;2023-07-31T10:02:22;27.40;44.80
48043;DHT22;33988;47.992;8.820;2023-07-31T10:04:50;27.50;44.60
48043;DHT22;33988;47.992;8.820;2023-07-31T10:07:18;27.50;44.80
48043;DHT22;33988;47.992;8.820;2023-07-31T10:09:47;27.60;44.50
48043;DHT22;33988;47.992;8.820;2023-07-31T10:12:18;27.60;44.50
48043;DHT22;33988;47.992;8.820;2023-07-31T10:14:46;27.70;44.30
48043;DHT22;33988;47.992;8.820;2023-07-31T10:17:17;27.70;44.10
48043;DHT22;33988;47.992;8.820;2023-07-31T10:19:48;27.80;44.10
48043;DHT22;33988;47.992;8.820;2023-07-31T10:22:16;27.80;43.80
48043;DHT22;33988;47.992;8.820;2023-07-31T10:24:46;27.90;44.00
48043;DHT22;33988;47.992;8.820;2023-07-31T10:27:15;27.90;44.20
48043;DHT22;33988;47.992;8.820;2023-07-31T10:29:45;28.00;44.40
48043;DHT22;33988;47.992;8.820;2023-07-31T10:32:15;28.00;43.80
48043;DHT22;33988;47.992;8.820;2023-07-31T10:34:44;28.00;43.70
48043;DHT22;33988;47.992;8.820;2023-07-31T10:40:10;28.10;43.50
48043;DHT22;33988;47.992;8.820;2023-07-31T10:42:54;28.20;43.60
48043;DHT22;33988;47.992;8.820;2023-07-31T10:45:35;28.20;43.70
48043;DHT22;33988;47.992;8.820;2023-07-31T10:50:40;28.30;44.00
48043;DHT22;33988;47.992;8.820;2023-07-31T10:53:28;28.30;43.40
48043;DHT22;33988;47.992;8.820;2023-07-31T10:56:00;28.30;42.70
48043;DHT22;33988;47.992;8.820;2023-07-31T10:58:31;28.40;43.10
48043;DHT22;33988;47.992;8.820;2023-07-31T11:01:05;28.50;43.10
48043;DHT22;33988;47.992;8.820;2023-07-31T11:03:42;28.50;43.10
48043;DHT22;33988;47.992;8.820;2023-07-31T11:06:10;28.50;42.40
48043;DHT22;33988;47.992;8.820;2023-07-31T11:08:44;28.60;42.50
48043;DHT22;33988;47.992;8.820;2023-07-31T11:11:16;28.60;42.50
48043;DHT22;33988;47.992;8.820;2023-07-31T11:13:52;28.70;42.40
48043;DHT22;33988;47.992;8.820;2023-07-31T11:16:26;28.70;42.40
48043;DHT22;33988;47.992;8.820;2023-07-31T11:18:56;28.70;42.00
48043;DHT22;33988;47.992;8.820;2023-07-31T11:21:25;28.80;41.90
48043;DHT22;33988;47.992;8.820;2023-07-31T11:23:56;28.80;42.10
48043;DHT22;33988;47.992;8.820;2023-07-31T11:26:26;28.80;41.80
48043;DHT22;33988;47.992;8.820;2023-07-31T11:28:56;28.80;41.80
48043;DHT22;33988;47.992;8.820;2023-07-31T11:31:26;28.80;41.60
48043;DHT22;33988;47.992;8.820;2023-07-31T11:34:07;28.80;41.60
48043;DHT22;33988;47.992;8.820;2023-07-31T11:36:36;28.80;41.90
48043;DHT22;33988;47.992;8.820;2023-07-31T11:39:10;28.80;42.10
48043;DHT22;33988;47.992;8.820;2023-07-31T11:41:40;28.80;41.70
48043;DHT22;33988;47.992;8.820;2023-07-31T11:44:08;28.90;41.80
48043;DHT22;33988;47.992;8.820;2023-07-31T11:46:53;28.80;41.70
48043;DHT22;33988;47.992;8.820;2023-07-31T11:49:23;28.90;41.90
48043;DHT22;33988;47.992;8.820;2023-07-31T11:51:50;28.90;41.70
48043;DHT22;33988;47.992;8.820;2023-07-31T11:54:17;28.90;41.60
48043;DHT22;33988;47.992;8.820;2023-07-31T11:56:45;29.00;41.70
48043;DHT22;33988;47.992;8.820;2023-07-31T11:59:12;29.00;41.70
48043;DHT22;33988;47.992;8.820;2023-07-31T12:01:41;29.00;41.60
48043;DHT22;33988;47.992;8.820;2023-07-31T12:04:09;29.00;41.50
48043;DHT22;33988;47.992;8.820;2023-07-31T12:06:37;29.10;41.70
48043;DHT22;33988;47.992;8.820;2023-07-31T12:09:05;29.10;41.60
48043;DHT22;33988;47.992;8.820;2023-07-31T12:11:45;29.10;41.70
48043;DHT22;33988;47.992;8.820;2023-07-31T12:14:41;29.10;41.30
48043;DHT22;33988;47.992;8.820;2023-07-31T12:17:08;29.10;41.50
48043;DHT22;33988;47.992;8.820;2023-07-31T12:19:35;29.20;41.70
48043;DHT22;33988;47.992;8.820;2023-07-31T12:22:14;29.20;41.30
48043;DHT22;33988;47.992;8.820;2023-07-31T12:24:44;29.20;40.80
48043;DHT22;33988;47.992;8.820;2023-07-31T12:27:15;29.30;41.10
48043;DHT22;33988;47.992;8.820;2023-07-31T12:29:42;29.40;41.10
48043;DHT22;33988;47.992;8.820;2023-07-31T12:32:24;29.10;41.60
48043;DHT22;33988;47.992;8.820;2023-07-31T12:34:59;29.30;40.90
48043;DHT22;33988;47.992;8.820;2023-07-31T12:37:28;29.50;41.00
48043;DHT22;33988;47.992;8.820;2023-07-31T12:39:55;29.50;40.80
48043;DHT22;33988;47.992;8.820;2023-07-31T12:42:25;29.50;40.80
48043;DHT22;33988;47.992;8.820;2023-07-31T12:44:55;29.50;40.80
48043;DHT22;33988;47.992;8.820;2023-07-31T12:47:24;29.50;40.40
48043;DHT22;33988;47.992;8.820;2023-07-31T12:49:53;29.40;40.90
48043;DHT22;33988;47.992;8.820;2023-07-31T12:52:23;29.40;40.90
48043;DHT22;33988;47.992;8.820;2023-07-31T12:54:52;29.40;41.00
48043;DHT22;33988;47.992;8.820;2023-07-31T12:57:21;29.30;40.70
48043;DHT22;33988;47.992;8.820;2023-07-31T12:59:50;29.40;40.80
48043;DHT22;33988;47.992;8.820;2023-07-31T13:02:20;29.30;40.90
48043;DHT22;33988;47.992;8.820;2023-07-31T13:04:51;29.30;41.20
48043;DHT22;33988;47.992;8.820;2023-07-31T13:07:18;29.30;41.50
48043;DHT22;33988;47.992;8.820;2023-07-31T13:09:47;29.30;41.50
48043;DHT22;33988;47.992;8.820;2023-07-31T13:12:14;29.40;41.60
48043;DHT22;33988;47.992;8.820;2023-07-31T13:14:40;29.30;41.10
48043;DHT22;33988;47.992;8.820;2023-07-31T13:17:12;29.40;41.60
48043;DHT22;33988;47.992;8.820;2023-07-31T13:19:39;29.40;40.90
48043;DHT22;33988;47.992;8.820;2023-07-31T13:22:12;29.40;40.70
48043;DHT22;33988;47.992;8.820;2023-07-31T13:24:41;29.40;40.60
48043;DHT22;33988;47.992;8.820;2023-07-31T13:27:08;29.30;40.80
48043;DHT22;33988;47.992;8.820;2023-07-31T13:29:35;29.30;40.50
48043;DHT22;33988;47.992;8.820;2023-07-31T13:32:04;29.30;40.40
48043;DHT22;33988;47.992;8.820;2023-07-31T13:34:34;29.30;40.50
48043;DHT22;33988;47.992;8.820;2023-07-31T13:37:03;29.30;40.40
48043;DHT22;33988;47.992;8.820;2023-07-31T13:39:32;29.30;40.30
48043;DHT22;33988;47.992;8.820;2023-07-31T13:42:00;29.00;40.90
48043;DHT22;33988;47.992;8.820;2023-07-31T13:44:33;29.20;40.70
48043;DHT22;33988;47.992;8.820;2023-07-31T13:47:01;29.20;40.50
48043;DHT22;33988;47.992;8.820;2023-07-31T13:49:29;29.20;40.50
48043;DHT22;33988;47.992;8.820;2023-07-31T13:51:57;29.20;40.40
48043;DHT22;33988;47.992;8.820;2023-07-31T13:54:24;29.20;40.70
48043;DHT22;33988;47.992;8.820;2023-07-31T13:56:58;29.20;40.80
48043;DHT22;33988;47.992;8.820;2023-07-31T13:59:28;29.10;40.50
48043;DHT22;33988;47.992;8.820;2023-07-31T14:01:55;29.20;40.80
48043;DHT22;33988;47.992;8.820;2023-07-31T14:04:22;29.20;41.20
48043;DHT22;33988;47.992;8.820;2023-07-31T14:06:54;29.20;41.30
48043;DHT22;33988;47.992;8.820;2023-07-31T14:09:27;29.20;41.30
48043;DHT22;33988;47.992;8.820;2023-07-31T14:11:56;29.20;41.30
48043;DHT22;33988;47.992;8.820;2023-07-31T14:14:29;29.20;40.80
48043;DHT22;33988;47.992;8.820;2023-07-31T14:17:03;29.20;40.20
48043;DHT22;33988;47.992;8.820;2023-07-31T14:19:30;29.10;39.90
48043;DHT22;33988;47.992;8.820;2023-07-31T14:22:00;29.20;40.40
48043;DHT22;33988;47.992;8.820;2023-07-31T14:24:38;29.20;40.40
48043;DHT22;33988;47.992;8.820;2023-07-31T14:27:05;29.20;40.40
48043;DHT22;33988;47.992;8.820;2023-07-31T14:29:32;29.20;40.80
48043;DHT22;33988;47.992;8.820;2023-07-31T14:31:59;29.20;40.30
48043;DHT22;33988;47.992;8.820;2023-07-31T14:34:27;29.20;40.10
48043;DHT22;33988;47.992;8.820;2023-07-31T14:36:54;29.20;40.10
48043;DHT22;33988;47.992;8.820;2023-07-31T14:39:25;29.20;40.20
48043;DHT22;33988;47.992;8.820;2023-07-31T14:41:55;29.20;40.40
48043;DHT22;33988;47.992;8.820;2023-07-31T14:44:21;29.20;40.40
48043;DHT22;33988;47.992;8.820;2023-07-31T14:46:49;29.20;40.10
48043;DHT22;33988;47.992;8.820;2023-07-31T14:49:16;29.20;39.90
48043;DHT22;33988;47.992;8.820;2023-07-31T14:51:43;29.30;39.80
48043;DHT22;33988;47.992;8.820;2023-07-31T14:54:12;29.20;40.30
48043;DHT22;33988;47.992;8.820;2023-07-31T14:56:42;29.20;39.60
48043;DHT22;33988;47.992;8.820;2023-07-31T14:59:08;29.20;39.80
48043;DHT22;33988;47.992;8.820;2023-07-31T15:01:41;29.20;39.90
48043;DHT22;33988;47.992;8.820;2023-07-31T15:04:08;29.20;39.70
48043;DHT22;33988;47.992;8.820;2023-07-31T15:06:37;29.20;40.00
48043;DHT22;33988;47.992;8.820;2023-07-31T15:09:05;29.20;40.20
48043;DHT22;33988;47.992;8.820;2023-07-31T15:11:34;29.20;40.00
48043;DHT22;33988;47.992;8.820;2023-07-31T15:14:03;29.20;40.00
48043;DHT22;33988;47.992;8.820;2023-07-31T15:16:30;29.10;40.00
48043;DHT22;33988;47.992;8.820;2023-07-31T15:18:58;29.20;40.20
48043;DHT22;33988;47.992;8.820;2023-07-31T15:21:25;29.20;40.40
48043;DHT22;33988;47.992;8.820;2023-07-31T15:23:54;29.20;39.80
48043;DHT22;33988;47.992;8.820;2023-07-31T15:26:21;29.20;39.60
48043;DHT22;33988;47.992;8.820;2023-07-31T15:28:57;29.10;39.40
48043;DHT22;33988;47.992;8.820;2023-07-31T15:31:31;29.10;39.40
48043;DHT22;33988;47.992;8.820;2023-07-31T15:33:58;29.10;39.40
48043;DHT22;33988;47.992;8.820;2023-07-31T15:36:25;29.10;39.50
48043;DHT22;33988;47.992;8.820;2023-07-31T15:38:52;29.10;39.50
48043;DHT22;33988;47.992;8.820;2023-07-31T15:41:19;29.10;39.40
48043;DHT22;33988;47.992;8.820;2023-07-31T15:43:48;29.10;39.50
48043;DHT22;33988;47.992;8.820;2023-07-31T15:46:16;29.00;39.50
48043;DHT22;33988;47.992;8.820;2023-07-31T15:48:44;29.00;39.60
48043;DHT22;33988;47.992;8.820;2023-07-31T15:51:11;29.00;39.70